Time,TemperatureF,DewpointF,PressureIn,WindDirection,WindDirectionDegrees,WindSpeedMPH,WindSpeedGustMPH,Humidity,HourlyPrecipIn,Conditions,Clouds,dailyrainin,SoftwareType,DateUTC
2013-02-15 07:01:00,18.0,17.0,-100.00,WNW,285,1.0,-999.0,96,0.00,,,-99.99,,2013-02-15 14:01:00,
2013-02-15 07:12:00,17.0,17.0,-100.00,North,355,2.0,3.0,95,0.00,,,-99.99,,2013-02-15 14:12:00,
2013-02-15 07:21:00,17.0,16.0,-100.00,North,5,2.0,2.0,95,0.00,,,-99.99,,2013-02-15 14:21:00,
2013-02-15 07:32:00,17.0,16.0,-100.00,NE,35,2.0,3.0,95,0.00,,,-99.99,,2013-02-15 14:32:00,
2013-02-15 07:41:00,18.0,17.0,-100.00,NE,45,0.0,2.0,96,0.00,,,-99.99,,2013-02-15 14:41:00,
2013-02-15 07:52:00,18.0,17.0,-100.00,ESE,115,2.0,2.0,96,0.00,,,-99.99,,2013-02-15 14:52:00,
2013-02-15 08:01:00,19.0,18.0,-100.00,ENE,60,2.0,3.0,96,0.00,,,-99.99,,2013-02-15 15:01:00,
2013-02-15 08:11:00,20.0,19.0,-100.00,ENE,75,0.0,3.0,95,0.00,,,-99.99,,2013-02-15 15:11:00,
2013-02-15 08:21:00,21.0,20.0,-100.00,ENE,75,0.0,1.0,94,0.00,,,-99.99,,2013-02-15 15:21:00,
2013-02-15 08:32:00,22.0,21.0,-100.00,ESE,120,0.0,1.0,93,0.00,,,-99.99,,2013-02-15 15:32:00,
2013-02-15 08:42:00,24.0,21.0,-100.00,North,350,1.0,2.0,90,0.00,,,-99.99,,2013-02-15 15:42:00,
2013-02-15 08:51:00,25.0,22.0,-100.00,SSE,150,0.0,1.0,88,0.00,,,-99.99,,2013-02-15 15:51:00,
2013-02-15 09:01:00,26.0,22.0,-100.00,SE,145,1.0,2.0,83,0.00,,,-99.99,,2013-02-15 16:01:00,
2013-02-15 09:11:00,29.0,23.0,-100.00,SSW,210,2.0,3.0,77,0.00,,,-99.99,,2013-02-15 16:11:00,
2013-02-15 09:22:00,31.0,23.0,-100.00,East,100,1.0,2.0,71,0.00,,,-99.99,,2013-02-15 16:22:00,
2013-02-15 09:31:00,33.0,24.0,-100.00,SSW,200,0.0,1.0,66,0.00,,,-99.99,,2013-02-15 16:31:00,
2013-02-15 09:42:00,36.0,24.0,-100.00,WNW,295,0.0,1.0,62,0.00,,,-99.99,,2013-02-15 16:42:00,
2013-02-15 09:51:00,37.0,23.0,-100.00,SSW,210,2.0,4.0,57,0.00,,,-99.99,,2013-02-15 16:51:00,
2013-02-15 10:01:00,35.0,22.0,-100.00,WSW,245,6.0,7.0,59,0.00,,,-99.99,,2013-02-15 17:01:00,
2013-02-15 10:11:00,33.0,22.0,-100.00,SSW,205,3.0,7.0,61,0.00,,,-99.99,,2013-02-15 17:11:00,
2013-02-15 10:21:00,33.0,21.0,-100.00,South,180,2.0,6.0,61,0.00,,,-99.99,,2013-02-15 17:21:00,
2013-02-15 10:32:00,35.0,22.0,-100.00,SSW,210,2.0,6.0,60,0.00,,,-99.99,,2013-02-15 17:32:00,
2013-02-15 10:41:00,35.0,22.0,-100.00,SSW,210,2.0,4.0,58,0.00,,,-99.99,,2013-02-15 17:41:00,
2013-02-15 10:52:00,37.0,23.0,-100.00,NW,310,2.0,4.0,56,0.00,,,-99.99,,2013-02-15 17:52:00,
2013-02-15 11:01:00,37.0,23.0,-100.00,West,265,4.0,7.0,55,0.00,,,-99.99,,2013-02-15 18:01:00,
2013-02-15 11:11:00,35.0,21.0,-100.00,NW,310,5.0,8.0,54,0.00,,,-99.99,,2013-02-15 18:11:00,
2013-02-15 11:21:00,35.0,21.0,-100.00,WNW,290,4.0,9.0,54,0.00,,,-99.99,,2013-02-15 18:21:00,
2013-02-15 11:31:00,35.0,20.0,-100.00,NW,310,7.0,9.0,54,0.00,,,-99.99,,2013-02-15 18:31:00,
2013-02-15 11:41:00,35.0,20.0,-100.00,NW,310,7.0,9.0,54,0.00,,,-99.99,,2013-02-15 18:41:00,
2013-02-15 11:52:00,37.0,22.0,-100.00,NW,315,4.0,7.0,52,0.00,,,-99.99,,2013-02-15 18:52:00,
2013-02-15 12:01:00,40.0,22.0,-100.00,West,280,4.0,6.0,49,0.00,,,-99.99,,2013-02-15 19:01:00,
2013-02-15 12:11:00,40.0,22.0,-100.00,WNW,295,4.0,7.0,49,0.00,,,-99.99,,2013-02-15 19:11:00,
2013-02-15 12:22:00,38.0,21.0,-100.00,WNW,300,7.0,9.0,48,0.00,,,-99.99,,2013-02-15 19:22:00,
2013-02-15 12:32:00,38.0,21.0,-100.00,WNW,290,6.0,12.0,49,0.00,,,-99.99,,2013-02-15 19:32:00,
2013-02-15 12:41:00,40.0,22.0,-100.00,NW,310,6.0,11.0,48,0.00,,,-99.99,,2013-02-15 19:41:00,
2013-02-15 12:51:00,38.0,20.0,-100.00,WNW,290,4.0,8.0,48,0.00,,,-99.99,,2013-02-15 19:51:00,
2013-02-15 13:01:00,39.0,21.0,-100.00,NNW,340,3.0,8.0,49,0.00,,,-99.99,,2013-02-15 20:01:00,
2013-02-15 13:11:00,40.0,21.0,-100.00,NW,305,5.0,10.0,45,0.00,,,-99.99,,2013-02-15 20:11:00,
2013-02-15 13:21:00,41.0,21.0,-100.00,NNE,30,2.0,9.0,45,0.00,,,-99.99,,2013-02-15 20:21:00,
2013-02-15 13:32:00,41.0,20.0,-100.00,NNW,340,4.0,7.0,43,0.00,,,-99.99,,2013-02-15 20:32:00,
2013-02-15 13:42:00,41.0,20.0,-100.00,NNW,340,4.0,7.0,43,0.00,,,-99.99,,2013-02-15 20:42:00,
2013-02-15 13:52:00,41.0,20.0,-100.00,North,5,7.0,11.0,43,0.00,,,-99.99,,2013-02-15 20:52:00,
2013-02-15 14:01:00,41.0,21.0,-100.00,NW,320,9.0,12.0,44,0.00,,,-99.99,,2013-02-15 21:01:00,
2013-02-15 14:11:00,41.0,22.0,-100.00,North,5,7.0,12.0,45,0.00,,,-99.99,,2013-02-15 21:11:00,
2013-02-15 14:21:00,42.0,21.0,-100.00,North,350,6.0,10.0,43,0.00,,,-99.99,,2013-02-15 21:21:00,
2013-02-15 14:31:00,40.0,20.0,-100.00,North,5,11.0,14.0,45,0.00,,,-99.99,,2013-02-15 21:31:00,
2013-02-15 14:42:00,40.0,20.0,-100.00,North,0,6.0,14.0,44,0.00,,,-99.99,,2013-02-15 21:42:00,
2013-02-15 14:51:00,42.0,19.0,-100.00,SE,135,6.0,9.0,37,0.00,,,-99.99,,2013-02-15 21:51:00,
2013-02-15 15:02:00,41.0,16.0,-100.00,South,175,9.0,17.0,35,0.00,,,-99.99,,2013-02-15 22:02:00,
2013-02-15 15:11:00,40.0,14.0,-100.00,SSE,155,14.0,21.0,33,0.00,,,-99.99,,2013-02-15 22:11:00,
2013-02-15 15:21:00,40.0,14.0,-100.00,SSE,155,10.0,19.0,33,0.00,,,-99.99,,2013-02-15 22:21:00,
2013-02-15 15:31:00,40.0,13.0,-100.00,SSE,160,11.0,19.0,32,0.00,,,-99.99,,2013-02-15 22:31:00,
2013-02-15 15:41:00,40.0,13.0,-100.00,SSE,160,9.0,16.0,32,0.00,,,-99.99,,2013-02-15 22:41:00,
2013-02-15 15:51:00,40.0,13.0,-100.00,SSE,160,9.0,16.0,32,0.00,,,-99.99,,2013-02-15 22:51:00,
2013-02-15 16:02:00,40.0,14.0,-100.00,SE,125,11.0,17.0,33,0.00,,,-99.99,,2013-02-15 23:02:00,
2013-02-15 16:11:00,40.0,13.0,-100.00,SSE,150,7.0,17.0,32,0.00,,,-99.99,,2013-02-15 23:11:00,
2013-02-15 16:21:00,40.0,14.0,-100.00,ENE,65,6.0,10.0,34,0.00,,,-99.99,,2013-02-15 23:21:00,
2013-02-15 16:31:00,39.0,14.0,-100.00,East,90,10.0,17.0,36,0.00,,,-99.99,,2013-02-15 23:31:00,
2013-02-15 16:42:00,40.0,15.0,-100.00,ENE,60,9.0,16.0,36,0.00,,,-99.99,,2013-02-15 23:42:00,
2013-02-15 16:52:00,39.0,15.0,-100.00,ENE,70,6.0,13.0,36,0.00,,,-99.99,,2013-02-15 23:52:00,
2013-02-15 17:02:00,38.0,14.0,-100.00,East,90,8.0,14.0,36,0.00,,,-99.99,,2013-02-16 00:02:00,
2013-02-15 17:11:00,38.0,14.0,-100.00,ESE,105,7.0,15.0,37,0.00,,,-99.99,,2013-02-16 00:11:00,
2013-02-15 17:21:00,37.0,14.0,-100.00,SSE,160,7.0,12.0,37,0.00,,,-99.99,,2013-02-16 00:21:00,
2013-02-15 17:32:00,37.0,14.0,-100.00,South,190,2.0,9.0,38,0.00,,,-99.99,,2013-02-16 00:32:00,
2013-02-15 17:41:00,36.0,14.0,-100.00,South,170,2.0,12.0,39,0.00,,,-99.99,,2013-02-16 00:41:00,
2013-02-15 17:50:00,35.0,14.0,-100.00,SW,230,2.0,9.0,41,0.00,,,-99.99,,2013-02-16 00:50:00,
2013-02-15 17:51:00,35.0,13.0,-100.00,North,5,1.0,6.0,40,0.00,,,-99.99,,2013-02-16 00:51:00,
2013-02-15 18:02:00,35.0,14.0,-100.00,SW,230,2.0,9.0,41,0.00,,,-99.99,,2013-02-16 01:02:00,
2013-02-15 18:11:00,35.0,14.0,-100.00,SW,230,2.0,9.0,41,0.00,,,-99.99,,2013-02-16 01:11:00,
2013-02-15 18:21:00,35.0,14.0,-100.00,SW,230,2.0,9.0,41,0.00,,,-99.99,,2013-02-16 01:21:00,
2013-02-15 18:31:00,35.0,14.0,-100.00,SW,230,2.0,9.0,41,0.00,,,-99.99,,2013-02-16 01:31:00,
2013-02-15 18:41:00,35.0,14.0,-100.00,SW,230,2.0,9.0,41,0.00,,,-99.99,,2013-02-16 01:41:00,